logo
Search for airport 
image banner adimage banner adimage banner ad
image banner ad

FABS - Brits

Located in Brits, South Africa

ICAO - FABS, IATA -

Data provided by Airmate  

General information

Coordinates: S25°31'57" E27°46'33"
Elevation is 3756 feet MSL.
 
View others Airports in North-West

Operational data

Special qualification required
Current time UTC:
Current local time:
Weather at : FALA - Lanseria International ( 48 km )
METAR: FALA 180600Z 00000KT CAVOK 15/10 Q1029 NOSIG
TAF: TAF FALA 180400Z 1806/1906 VRB03KT CAVOK TX23/1812Z TN12/1904Z
View NOTAMs / SUP AIP / TFR affecting this airport [VIEW]
Communications frequencies: [VIEW]

Runways:

RWY identifierQFULength (ft)Width (ft)SurfaceLDA (ft)
0200UNK
2000UNK

Airport contact information

Address: Brits South Africa

Other aviation service providers

Flight schools

Brits Flight Training Centre

Brits Flight Training Centre
info@britsflyingclub.co.za+27122550155
+27714440928

Satellite view of FABS